Time;durP1;ratioP1;P1;durP2;ratioP2;P2;SDS_P1;SDS_P2;PMS_P1;PMS_P2;Temp;Humidity;BMP_temperature;BMP_pressure;BME280_temperature;BME280_humidity;BME280_pressure;Samples;Min_cycle;Max_cycle;Signal;HPM_P1;HPM_P2
2021/07/18 00:02:24;;;;;;;12.27;6.10;;;17.60;78.10;;;;;;6214333;23;20482;-76
2021/07/18 00:04:52;;;;;;;11.05;5.35;;;17.60;78.10;;;;;;6188504;23;20356;-77
2021/07/18 00:07:19;;;;;;;11.95;5.60;;;17.60;78.10;;;;;;6214437;23;20017;-76
2021/07/18 00:09:46;;;;;;;9.88;5.72;;;17.50;78.10;;;;;;6215167;23;20380;-77
2021/07/18 00:12:13;;;;;;;13.48;5.30;;;17.60;78.10;;;;;;6215102;23;20027;-77
2021/07/18 00:14:41;;;;;;;9.77;5.65;;;17.50;78.00;;;;;;6213948;23;20039;-77
2021/07/18 00:17:07;;;;;;;8.60;4.68;;;17.50;78.10;;;;;;6214217;23;20017;-76
2021/07/18 00:19:34;;;;;;;11.43;5.35;;;17.40;78.10;;;;;;6188422;23;20017;-77
2021/07/18 00:22:02;;;;;;;8.43;5.18;;;17.40;78.00;;;;;;6214324;23;20027;-76
2021/07/18 00:24:30;;;;;;;13.40;5.50;;;17.40;78.10;;;;;;6214650;23;20021;-77
2021/07/18 00:26:57;;;;;;;8.52;5.57;;;17.40;78.30;;;;;;6214491;23;20036;-76
2021/07/18 00:29:25;;;;;;;12.60;5.47;;;17.40;78.30;;;;;;6214030;23;20023;-77
2021/07/18 00:31:52;;;;;;;9.63;5.50;;;17.30;78.40;;;;;;6214624;23;20027;-76
2021/07/18 00:34:20;;;;;;;9.48;5.43;;;17.30;78.50;;;;;;6214724;23;20017;-76
2021/07/18 00:36:48;;;;;;;10.18;5.22;;;17.30;78.50;;;;;;6187623;23;20024;-76
2021/07/18 00:39:17;;;;;;;8.88;5.32;;;17.30;78.60;;;;;;6188127;23;20045;-76
2021/07/18 00:41:45;;;;;;;15.50;5.75;;;17.30;78.50;;;;;;6188525;23;20027;-76
2021/07/18 00:44:12;;;;;;;10.80;5.43;;;17.20;78.40;;;;;;6187492;23;20499;-76
2021/07/18 00:46:39;;;;;;;9.88;5.65;;;17.20;78.60;;;;;;6188030;23;20108;-77
2021/07/18 00:49:06;;;;;;;10.77;5.68;;;17.20;78.80;;;;;;6214064;23;20496;-77
2021/07/18 00:51:33;;;;;;;6.63;4.55;;;17.20;78.80;;;;;;6214241;23;20020;-77
2021/07/18 00:54:00;;;;;;;8.77;5.18;;;17.10;78.90;;;;;;6214104;23;20021;-76
2021/07/18 00:56:28;;;;;;;9.80;4.93;;;17.10;78.80;;;;;;6187937;23;20095;-77
2021/07/18 00:58:57;;;;;;;13.02;5.35;;;17.10;78.80;;;;;;6187643;23;20365;-77
2021/07/18 01:01:27;;;;;;;12.77;6.05;;;17.10;78.80;;;;;;6213736;23;20021;-77
2021/07/18 01:03:55;;;;;;;10.10;5.50;;;17.10;78.60;;;;;;6188122;23;20048;-76
2021/07/18 01:06:24;;;;;;;8.88;5.80;;;17.00;78.70;;;;;;6188006;23;20024;-77
2021/07/18 01:08:52;;;;;;;11.05;5.22;;;17.00;78.90;;;;;;6214403;23;20091;-76
2021/07/18 01:11:19;;;;;;;11.75;5.78;;;17.00;79.00;;;;;;6188351;23;20016;-77
2021/07/18 01:13:46;;;;;;;11.23;6.38;;;17.00;79.00;;;;;;6213683;23;20016;-77
2021/07/18 01:16:14;;;;;;;11.25;5.50;;;17.00;79.00;;;;;;6187914;23;20091;-77
2021/07/18 01:18:42;;;;;;;10.15;4.82;;;17.00;79.10;;;;;;6214440;23;20025;-76
2021/07/18 01:21:10;;;;;;;7.75;4.97;;;17.00;79.00;;;;;;6187638;23;20017;-77
2021/07/18 01:23:39;;;;;;;12.50;5.68;;;16.90;78.80;;;;;;6188107;23;20016;-77
2021/07/18 01:26:07;;;;;;;9.70;5.22;;;16.90;78.80;;;;;;6188125;23;20890;-77
2021/07/18 01:28:35;;;;;;;10.75;5.60;;;16.90;78.90;;;;;;6187545;23;20083;-77
2021/07/18 01:31:02;;;;;;;12.15;5.20;;;16.90;79.00;;;;;;6214658;23;20017;-77
2021/07/18 01:33:29;;;;;;;9.25;4.70;;;16.90;79.10;;;;;;6188223;23;20021;-76
2021/07/18 01:35:56;;;;;;;9.00;5.30;;;16.90;79.30;;;;;;6213604;23;20028;-76
2021/07/18 01:38:23;;;;;;;9.32;4.65;;;16.80;79.40;;;;;;6214338;23;20020;-76
2021/07/18 01:40:50;;;;;;;14.93;5.60;;;16.80;79.40;;;;;;6187825;23;20027;-77
2021/07/18 01:43:18;;;;;;;10.75;5.82;;;16.80;79.40;;;;;;6187145;23;20013;-77
2021/07/18 01:45:45;;;;;;;12.52;5.22;;;16.70;79.20;;;;;;6214132;23;20028;-76
2021/07/18 01:48:12;;;;;;;10.02;6.07;;;16.70;79.10;;;;;;6187781;23;20025;-76
2021/07/18 01:50:40;;;;;;;10.60;5.60;;;16.70;78.80;;;;;;6213897;23;20025;-78
2021/07/18 01:53:07;;;;;;;10.73;5.28;;;16.70;78.80;;;;;;6188294;23;20019;-78
2021/07/18 01:55:35;;;;;;;10.68;5.20;;;16.60;78.90;;;;;;6187895;23;20021;-77
2021/07/18 01:58:03;;;;;;;8.85;5.85;;;16.60;78.80;;;;;;6213551;23;20017;-77
2021/07/18 02:00:30;;;;;;;10.32;5.13;;;16.60;78.80;;;;;;6216230;23;20023;-77
2021/07/18 02:02:57;;;;;;;9.15;5.32;;;16.60;79.00;;;;;;6190119;23;20016;-77
2021/07/18 02:05:24;;;;;;;8.57;5.28;;;16.60;79.10;;;;;;6215944;23;20103;-77
2021/07/18 02:07:52;;;;;;;10.30;5.38;;;16.50;79.30;;;;;;6190131;23;20021;-76
2021/07/18 02:10:20;;;;;;;9.90;5.72;;;16.50;79.40;;;;;;6216403;23;20020;-77
2021/07/18 02:12:49;;;;;;;12.30;6.03;;;16.50;79.20;;;;;;6215636;23;20426;-77
2021/07/18 02:15:19;;;;;;;10.07;6.22;;;16.40;79.00;;;;;;6215513;23;20024;-77
2021/07/18 02:17:46;;;;;;;13.80;5.60;;;16.40;79.10;;;;;;6189575;23;20338;-76
2021/07/18 02:20:16;;;;;;;9.60;5.47;;;16.40;79.00;;;;;;6189436;23;20054;-77
2021/07/18 02:22:47;;;;;;;10.48;5.68;;;16.40;79.00;;;;;;6216181;23;20020;-76
2021/07/18 02:25:16;;;;;;;9.57;5.70;;;16.40;79.10;;;;;;6189845;23;20017;-78
2021/07/18 02:27:44;;;;;;;10.55;5.80;;;16.40;79.00;;;;;;6188770;23;20016;-77
2021/07/18 02:30:15;;;;;;;8.55;5.90;;;16.40;79.00;;;;;;6189468;23;20017;-77
2021/07/18 02:32:42;;;;;;;11.10;5.70;;;16.40;79.20;;;;;;6189580;23;20020;-76
2021/07/18 02:35:12;;;;;;;9.75;5.93;;;16.40;79.40;;;;;;6188946;23;20016;-76
2021/07/18 02:37:41;;;;;;;10.52;5.68;;;16.40;79.50;;;;;;6215438;23;20044;-77
2021/07/18 02:40:08;;;;;;;9.95;5.82;;;16.30;79.70;;;;;;6215653;23;20487;-77
2021/07/18 02:42:36;;;;;;;12.70;5.97;;;16.20;79.80;;;;;;6188476;23;20352;-77
2021/07/18 02:45:06;;;;;;;11.05;5.85;;;16.20;79.90;;;;;;6189455;23;20030;-77
2021/07/18 02:47:33;;;;;;;13.73;6.45;;;16.20;79.90;;;;;;6189150;23;20032;-77
2021/07/18 02:50:01;;;;;;;8.80;5.45;;;16.20;80.00;;;;;;6215451;23;20021;-77
2021/07/18 02:52:28;;;;;;;12.55;5.80;;;16.10;80.00;;;;;;6215743;23;20017;-76
2021/07/18 02:54:55;;;;;;;11.00;5.50;;;16.10;80.10;;;;;;6189323;23;20043;-77
2021/07/18 02:57:22;;;;;;;14.85;5.90;;;16.10;80.10;;;;;;6188324;23;20020;-77
2021/07/18 02:59:50;;;;;;;14.90;5.65;;;16.00;80.10;;;;;;6189579;23;20023;-79
2021/07/18 03:02:17;;;;;;;14.60;5.60;;;16.10;80.20;;;;;;6188822;23;20049;-76
2021/07/18 03:04:44;;;;;;;10.63;6.22;;;16.00;80.20;;;;;;6215378;23;20025;-77
2021/07/18 03:07:11;;;;;;;9.35;5.75;;;16.00;80.20;;;;;;6215363;23;20021;-77
2021/07/18 03:09:39;;;;;;;10.20;5.78;;;16.00;80.20;;;;;;6215301;23;20020;-77
2021/07/18 03:12:06;;;;;;;15.32;6.70;;;15.90;80.30;;;;;;6188599;23;20034;-77
2021/07/18 03:14:33;;;;;;;10.57;6.45;;;15.90;80.30;;;;;;6189358;23;20027;-77
2021/07/18 03:17:00;;;;;;;13.43;6.53;;;15.90;80.30;;;;;;6189166;23;20027;-77
2021/07/18 03:19:28;;;;;;;13.98;6.72;;;15.90;80.40;;;;;;6214768;23;20520;-77
2021/07/18 03:21:55;;;;;;;15.68;6.57;;;15.90;80.40;;;;;;6215721;23;20013;-77
2021/07/18 03:24:22;;;;;;;15.23;6.80;;;15.90;80.50;;;;;;6189116;23;20021;-78
2021/07/18 03:26:49;;;;;;;17.98;7.85;;;15.90;80.50;;;;;;6214655;23;20020;-77
2021/07/18 03:29:16;;;;;;;10.98;6.63;;;15.90;80.50;;;;;;6188889;23;20027;-76
2021/07/18 03:31:43;;;;;;;11.73;7.40;;;15.90;80.50;;;;;;6189219;23;20050;-77
2021/07/18 03:34:10;;;;;;;10.25;6.70;;;15.90;80.60;;;;;;6188945;23;20304;-76
2021/07/18 03:36:38;;;;;;;11.98;6.70;;;15.80;80.60;;;;;;6215436;23;20020;-77
2021/07/18 03:39:05;;;;;;;13.60;6.90;;;15.90;80.70;;;;;;6214600;23;20467;-77
2021/07/18 03:41:32;;;;;;;15.38;7.43;;;15.80;80.80;;;;;;6188329;23;20482;-76
2021/07/18 03:43:59;;;;;;;11.93;6.97;;;15.80;80.80;;;;;;6215082;23;20096;-77
2021/07/18 03:46:26;;;;;;;11.85;6.97;;;15.80;80.80;;;;;;6215263;23;20021;-77
2021/07/18 03:48:53;;;;;;;11.10;6.40;;;15.80;80.80;;;;;;6188247;23;20488;-77
2021/07/18 03:51:20;;;;;;;10.90;7.05;;;15.80;80.80;;;;;;6188741;23;20021;-77
2021/07/18 03:53:47;;;;;;;10.20;6.93;;;15.80;80.80;;;;;;6188589;23;20468;-77
2021/07/18 03:56:14;;;;;;;11.50;6.18;;;15.80;80.90;;;;;;6188218;23;20024;-77
2021/07/18 03:58:41;;;;;;;10.07;6.72;;;15.80;80.80;;;;;;6214716;23;20017;-77
2021/07/18 04:01:12;;;;;;;10.70;6.75;;;15.80;80.80;;;;;;6188551;23;20020;-77
2021/07/18 04:03:39;;;;;;;16.65;6.68;;;15.80;80.60;;;;;;6214431;23;20021;-77
2021/07/18 04:06:06;;;;;;;11.50;7.38;;;15.80;80.50;;;;;;6214905;23;20035;-76
2021/07/18 04:08:33;;;;;;;13.90;7.30;;;15.80;80.30;;;;;;6214980;23;20024;-78
2021/07/18 04:11:00;;;;;;;14.80;7.10;;;15.80;80.40;;;;;;6188429;23;20044;-76
2021/07/18 04:13:27;;;;;;;13.40;6.80;;;15.80;80.60;;;;;;6214971;23;20337;-77
2021/07/18 04:15:54;;;;;;;17.42;7.28;;;15.80;80.70;;;;;;6188084;23;20075;-77
2021/07/18 04:18:21;;;;;;;13.43;7.65;;;15.80;80.70;;;;;;6214149;23;20024;-77
2021/07/18 04:20:48;;;;;;;11.98;7.30;;;15.80;80.80;;;;;;6188506;23;20023;-76
2021/07/18 04:23:17;;;;;;;14.10;7.78;;;15.80;80.90;;;;;;6214388;23;20072;-77
2021/07/18 04:25:44;;;;;;;12.07;7.20;;;15.70;81.00;;;;;;6188089;23;20095;-77
2021/07/18 04:28:12;;;;;;;12.52;7.22;;;15.80;81.00;;;;;;6214291;23;20031;-77
2021/07/18 04:30:40;;;;;;;15.10;7.82;;;15.70;81.00;;;;;;6215003;23;20023;-77
2021/07/18 04:33:07;;;;;;;13.80;7.18;;;15.70;81.00;;;;;;6212983;23;20016;-77
2021/07/18 04:35:35;;;;;;;15.07;7.30;;;15.70;81.10;;;;;;6187782;23;20024;-76
2021/07/18 04:38:03;;;;;;;17.35;7.35;;;15.70;81.10;;;;;;6187849;23;20020;-77
2021/07/18 04:40:31;;;;;;;13.43;7.50;;;15.70;81.00;;;;;;6214503;23;20024;-77
2021/07/18 04:42:58;;;;;;;13.20;7.28;;;15.70;81.20;;;;;;6214748;23;20016;-77
2021/07/18 04:45:25;;;;;;;12.32;7.43;;;15.70;81.40;;;;;;6188130;23;20016;-77
2021/07/18 04:47:58;;;;;;;16.50;7.07;;;15.70;81.50;;;;;;6187882;23;20024;-77
2021/07/18 04:50:27;;;;;;;12.67;7.70;;;15.70;81.60;;;;;;6188404;23;20036;-77
2021/07/18 04:52:55;;;;;;;11.93;7.22;;;15.80;81.70;;;;;;6187965;23;20025;-76
2021/07/18 04:55:22;;;;;;;19.17;8.32;;;15.70;81.70;;;;;;6214501;23;20017;-77
2021/07/18 04:57:49;;;;;;;17.23;7.85;;;15.80;81.50;;;;;;6214211;23;20020;-76
2021/07/18 05:00:19;;;;;;;15.43;7.57;;;15.80;81.10;;;;;;6214195;23;20457;-76
2021/07/18 05:02:47;;;;;;;12.60;7.70;;;15.80;80.90;;;;;;6214110;23;20017;-76
2021/07/18 05:05:17;;;;;;;15.48;7.50;;;15.80;81.00;;;;;;6188058;23;20027;-76
2021/07/18 05:07:48;;;;;;;11.60;7.28;;;15.80;81.00;;;;;;6214042;23;20357;-78
2021/07/18 05:10:18;;;;;;;17.10;7.60;;;15.80;81.10;;;;;;6187780;23;20035;-76
2021/07/18 05:12:46;;;;;;;9.23;6.35;;;15.80;81.10;;;;;;6187679;23;20028;-76
2021/07/18 05:15:13;;;;;;;18.63;7.28;;;15.90;81.10;;;;;;6214020;23;20495;-76
2021/07/18 05:17:41;;;;;;;13.35;6.97;;;15.90;81.10;;;;;;6187121;23;20357;-77
2021/07/18 05:20:09;;;;;;;16.92;7.30;;;15.90;81.30;;;;;;6187644;23;20482;-76
2021/07/18 05:22:37;;;;;;;16.67;7.68;;;15.90;81.40;;;;;;6187764;23;20021;-76
2021/07/18 05:25:07;;;;;;;11.88;7.38;;;15.90;81.60;;;;;;6187435;23;20337;-77
2021/07/18 05:27:35;;;;;;;11.80;6.95;;;15.90;81.70;;;;;;6187747;23;20031;-76
2021/07/18 05:30:04;;;;;;;17.27;8.55;;;15.90;81.70;;;;;;6214073;23;20472;-77
2021/07/18 05:32:31;;;;;;;12.77;7.40;;;15.90;81.80;;;;;;6213985;23;20042;-76
2021/07/18 05:34:58;;;;;;;18.25;7.95;;;16.00;81.80;;;;;;6213554;23;20027;-76
2021/07/18 05:37:25;;;;;;;17.60;8.00;;;16.00;81.90;;;;;;6187552;23;20020;-76
2021/07/18 05:39:52;;;;;;;15.70;8.02;;;16.10;82.00;;;;;;6213813;23;20023;-76
2021/07/18 05:42:19;;;;;;;13.15;8.05;;;16.10;82.00;;;;;;6187755;23;20023;-78
2021/07/18 05:44:46;;;;;;;12.57;7.60;;;16.10;82.10;;;;;;6187749;23;20020;-76
2021/07/18 05:47:13;;;;;;;15.15;8.43;;;16.20;82.20;;;;;;6213966;23;20027;-77
2021/07/18 05:49:41;;;;;;;16.35;9.43;;;16.20;82.20;;;;;;6214073;23;20102;-77
2021/07/18 05:52:08;;;;;;;14.60;9.25;;;16.30;82.30;;;;;;6187586;23;20020;-77
2021/07/18 05:54:35;;;;;;;17.95;11.18;;;16.30;82.40;;;;;;6214058;23;20031;-76
2021/07/18 05:57:02;;;;;;;16.95;11.05;;;16.30;82.40;;;;;;6214377;23;20032;-76
2021/07/18 05:59:29;;;;;;;18.80;12.10;;;16.40;82.40;;;;;;6188066;23;20334;-76
2021/07/18 06:01:56;;;;;;;19.65;12.60;;;16.40;82.40;;;;;;6187317;23;20026;-75
2021/07/18 06:04:24;;;;;;;21.20;13.50;;;16.40;82.50;;;;;;6188088;23;20017;-76
2021/07/18 06:06:51;;;;;;;24.73;12.90;;;16.50;82.50;;;;;;6214189;23;20027;-76
2021/07/18 06:09:19;;;;;;;18.88;12.80;;;16.60;82.60;;;;;;6213948;23;20020;-76
2021/07/18 06:11:46;;;;;;;24.02;13.73;;;16.70;82.70;;;;;;6187765;23;20460;-75
2021/07/18 06:14:13;;;;;;;22.17;14.00;;;16.80;82.70;;;;;;6187577;23;20035;-76
2021/07/18 06:16:40;;;;;;;17.80;13.13;;;16.80;82.70;;;;;;6187382;23;20027;-75
2021/07/18 06:19:07;;;;;;;18.48;13.57;;;16.90;82.70;;;;;;6213955;23;20023;-76
2021/07/18 06:21:34;;;;;;;21.30;13.45;;;16.90;82.70;;;;;;6213938;23;20031;-76
2021/07/18 06:24:02;;;;;;;18.20;12.98;;;16.90;82.70;;;;;;6213952;23;20397;-76
2021/07/18 06:26:29;;;;;;;21.83;13.43;;;17.10;82.80;;;;;;6187782;23;20098;-75
2021/07/18 06:28:56;;;;;;;21.33;13.50;;;17.10;82.80;;;;;;6187369;23;20382;-76
2021/07/18 06:31:24;;;;;;;26.27;16.05;;;17.20;82.80;;;;;;6213444;23;20037;-76
2021/07/18 06:33:51;;;;;;;24.30;14.63;;;17.20;82.80;;;;;;6186813;23;20028;-75
2021/07/18 06:36:18;;;;;;;26.95;15.63;;;17.30;82.90;;;;;;6213554;23;20131;-76
2021/07/18 06:38:46;;;;;;;26.15;15.38;;;17.40;82.90;;;;;;6187348;23;20027;-77
2021/07/18 06:41:13;;;;;;;28.40;15.60;;;17.40;82.90;;;;;;6214029;23;20020;-79
2021/07/18 06:43:41;;;;;;;25.00;15.60;;;17.50;83.00;;;;;;6187730;23;20017;-77
2021/07/18 06:46:27;;;;;;;24.90;14.93;;;17.60;82.90;;;;;;6214540;23;20020;-76
2021/07/18 06:48:54;;;;;;;22.42;15.32;;;17.70;82.90;;;;;;6189039;23;20024;-76
2021/07/18 06:51:21;;;;;;;24.63;15.30;;;17.80;83.00;;;;;;6215843;23;20017;-77
2021/07/18 06:53:48;;;;;;;29.10;15.63;;;17.80;82.90;;;;;;6189396;23;20016;-81
2021/07/18 06:56:28;;;;;;;21.40;14.20;;;17.90;82.90;;;;;;6215769;23;20017;-82
2021/07/18 06:58:56;;;;;;;23.92;15.90;;;17.90;82.80;;;;;;6215375;23;20020;-78
2021/07/18 07:01:31;;;;;;;19.33;13.90;;;18.00;82.80;;;;;;6215214;23;20016;-80
2021/07/18 07:03:58;;;;;;;24.55;13.73;;;18.10;82.70;;;;;;6189587;23;20393;-76
2021/07/18 07:06:26;;;;;;;21.48;12.52;;;18.10;82.70;;;;;;6190148;23;20017;-76
2021/07/18 07:08:53;;;;;;;19.40;12.85;;;18.30;82.70;;;;;;6190013;23;20028;-77
2021/07/18 07:11:21;;;;;;;17.08;12.50;;;18.40;82.60;;;;;;6216301;23;20017;-77
2021/07/18 07:13:50;;;;;;;16.17;11.55;;;18.40;82.60;;;;;;6216359;23;20480;-78
2021/07/18 07:16:18;;;;;;;21.33;11.80;;;18.50;82.50;;;;;;6215973;23;20017;-77
2021/07/18 07:18:45;;;;;;;17.35;10.82;;;18.60;82.40;;;;;;6216075;23;20021;-80
2021/07/18 07:21:13;;;;;;;20.33;11.45;;;18.70;82.30;;;;;;6190376;23;20325;-77
2021/07/18 07:23:42;;;;;;;16.25;10.18;;;18.80;82.20;;;;;;6216170;23;20016;-77
2021/07/18 07:26:09;;;;;;;18.40;9.10;;;18.90;82.20;;;;;;6216563;23;20095;-76
2021/07/18 07:28:37;;;;;;;16.75;9.07;;;18.90;82.20;;;;;;6216226;23;20364;-80
2021/07/18 07:31:04;;;;;;;12.95;7.40;;;19.00;82.00;;;;;;6189646;23;20363;-77
2021/07/18 07:33:33;;;;;;;13.43;7.65;;;19.10;81.70;;;;;;6216527;23;20078;-77
2021/07/18 07:36:02;;;;;;;10.98;6.20;;;19.20;81.50;;;;;;6216009;23;20054;-77
2021/07/18 07:38:29;;;;;;;13.07;7.45;;;19.30;81.30;;;;;;6215979;23;20017;-76
2021/07/18 07:40:57;;;;;;;11.90;5.72;;;19.30;81.20;;;;;;6189667;23;20027;-75
2021/07/18 07:43:24;;;;;;;11.27;4.93;;;19.40;80.90;;;;;;6189858;23;20488;-77
2021/07/18 07:45:52;;;;;;;10.20;5.38;;;19.40;80.50;;;;;;6215609;23;20521;-77
2021/07/18 07:48:20;;;;;;;12.80;5.97;;;19.50;80.20;;;;;;6215984;23;20020;-80
2021/07/18 07:50:47;;;;;;;11.25;5.07;;;19.60;80.10;;;;;;6190025;23;20025;-79
2021/07/18 07:53:14;;;;;;;12.88;5.22;;;19.70;80.00;;;;;;6215036;23;20099;-82
2021/07/18 07:55:41;;;;;;;10.73;5.30;;;19.70;79.60;;;;;;6188337;23;20016;-83
2021/07/18 07:58:08;;;;;;;10.90;5.32;;;19.80;79.50;;;;;;6187452;23;20021;-83
2021/07/18 08:00:40;;;;;;;10.95;4.25;;;19.90;79.50;;;;;;6214146;23;20367;-78
2021/07/18 08:03:07;;;;;;;10.38;3.97;;;19.90;79.30;;;;;;6215022;23;20021;-79
2021/07/18 08:05:34;;;;;;;6.93;3.95;;;20.00;78.80;;;;;;6187779;23;20476;-76
2021/07/18 08:08:02;;;;;;;11.00;3.85;;;20.10;78.00;;;;;;6214667;23;20044;-77
2021/07/18 08:10:29;;;;;;;7.25;3.55;;;20.20;77.50;;;;;;6214679;23;20031;-76
2021/07/18 08:12:56;;;;;;;7.47;3.15;;;20.30;77.30;;;;;;6188006;23;20487;-77
2021/07/18 08:15:24;;;;;;;8.85;3.13;;;20.40;77.00;;;;;;6214242;23;20035;-76
2021/07/18 08:17:53;;;;;;;7.13;3.08;;;20.40;76.90;;;;;;6188210;23;20059;-77
2021/07/18 08:20:24;;;;;;;7.05;3.03;;;20.50;76.90;;;;;;6214492;23;20016;-77
2021/07/18 08:22:52;;;;;;;8.50;3.17;;;20.60;76.70;;;;;;6188462;23;20048;-76
2021/07/18 08:25:22;;;;;;;9.95;3.42;;;20.70;76.60;;;;;;6188498;23;20016;-77
2021/07/18 08:27:50;;;;;;;10.00;3.05;;;20.70;76.60;;;;;;6188210;23;20024;-77
2021/07/18 08:30:17;;;;;;;5.38;2.40;;;20.80;76.40;;;;;;6188290;23;20046;-76
2021/07/18 08:32:48;;;;;;;7.03;3.05;;;20.80;75.90;;;;;;6214795;23;20048;-77
2021/07/18 08:35:15;;;;;;;11.70;3.17;;;20.90;75.70;;;;;;6188262;23;20020;-77
2021/07/18 08:37:43;;;;;;;5.78;2.90;;;21.00;75.70;;;;;;6214307;23;20027;-78
2021/07/18 08:40:12;;;;;;;5.93;2.90;;;21.00;74.40;;;;;;6188239;23;20419;-77
2021/07/18 08:42:40;;;;;;;9.05;3.63;;;21.10;74.50;;;;;;6188224;23;20025;-77
2021/07/18 08:45:09;;;;;;;6.72;2.80;;;21.10;74.80;;;;;;6188169;23;20017;-77
2021/07/18 08:47:37;;;;;;;5.60;2.45;;;21.20;74.90;;;;;;6188046;23;20029;-77
2021/07/18 08:50:05;;;;;;;7.55;3.10;;;21.30;74.40;;;;;;6213097;23;20473;-77
2021/07/18 08:52:33;;;;;;;7.78;2.72;;;21.40;74.10;;;;;;6188397;23;20020;-77
2021/07/18 08:55:06;;;;;;;6.03;2.50;;;21.40;74.40;;;;;;6189540;23;20028;-77
2021/07/18 08:57:34;;;;;;;12.30;2.85;;;21.50;74.40;;;;;;6187050;23;20043;-77
2021/07/18 09:00:04;;;;;;;7.75;2.20;;;21.60;74.40;;;;;;6214038;23;20028;-77
2021/07/18 09:02:32;;;;;;;5.93;2.20;;;21.60;74.20;;;;;;6213760;23;20494;-77
2021/07/18 09:04:59;;;;;;;7.20;2.33;;;21.60;73.40;;;;;;6187739;23;20021;-77
2021/07/18 09:07:26;;;;;;;4.00;2.30;;;21.80;72.80;;;;;;6187856;23;20025;-77
2021/07/18 09:10:05;;;;;;;4.20;2.00;;;21.80;72.90;;;;;;6187753;23;20021;-76
2021/07/18 09:12:33;;;;;;;7.78;2.45;;;21.90;72.60;;;;;;6187305;23;20506;-77
2021/07/18 09:15:00;;;;;;;5.80;2.40;;;21.90;72.20;;;;;;6187977;23;20464;-78
2021/07/18 09:17:34;;;;;;;8.15;2.50;;;22.00;71.30;;;;;;6213367;23;20052;-76
2021/07/18 09:20:14;;;;;;;6.28;2.25;;;22.10;71.00;;;;;;6187228;23;20526;-77
2021/07/18 09:22:41;;;;;;;6.85;2.20;;;22.20;71.30;;;;;;6187966;23;20044;-77
2021/07/18 09:25:08;;;;;;;9.18;2.58;;;22.30;71.90;;;;;;6214205;23;20027;-76
2021/07/18 09:27:35;;;;;;;9.38;2.45;;;22.30;71.50;;;;;;6213059;23;20468;-76
2021/07/18 09:30:15;;;;;;;5.43;2.17;;;22.40;71.20;;;;;;6188267;23;20020;-76
2021/07/18 09:32:46;;;;;;;4.72;2.30;;;22.40;71.00;;;;;;6213264;23;20091;-77
2021/07/18 09:35:16;;;;;;;5.35;2.22;;;22.50;71.20;;;;;;6214536;23;20100;-76
2021/07/18 09:37:46;;;;;;;4.38;2.10;;;22.50;70.70;;;;;;6186971;23;20044;-75
2021/07/18 09:40:23;;;;;;;8.90;2.35;;;22.60;70.60;;;;;;6187933;23;20023;-77
2021/07/18 09:42:52;;;;;;;6.13;2.00;;;22.70;70.30;;;;;;6214116;23;20043;-75
2021/07/18 09:45:24;;;;;;;5.13;2.00;;;22.70;69.70;;;;;;6187401;23;20385;-76
2021/07/18 09:48:02;;;;;;;9.20;2.25;;;22.90;70.10;;;;;;6213629;23;20535;-78
2021/07/18 09:50:35;;;;;;;5.88;2.10;;;22.90;69.90;;;;;;6214329;23;20090;-77
2021/07/18 09:53:06;;;;;;;6.68;2.40;;;22.90;70.30;;;;;;6212476;23;20027;-77
2021/07/18 09:55:33;;;;;;;9.63;2.80;;;23.00;70.10;;;;;;6213204;23;20025;-77
2021/07/18 09:58:00;;;;;;;6.40;2.28;;;23.10;69.10;;;;;;6187778;23;20042;-76
2021/07/18 10:00:42;;;;;;;5.05;2.00;;;23.10;68.60;;;;;;6214477;23;20024;-77
2021/07/18 10:03:11;;;;;;;12.02;2.92;;;23.20;69.00;;;;;;6187749;23;20017;-76
2021/07/18 10:05:39;;;;;;;7.05;2.50;;;23.30;68.80;;;;;;6187925;23;20025;-77
2021/07/18 10:08:08;;;;;;;7.80;2.42;;;23.30;69.80;;;;;;6214061;23;20020;-77
2021/07/18 10:10:36;;;;;;;9.13;2.42;;;23.40;70.00;;;;;;6213524;23;20020;-77
2021/07/18 10:13:05;;;;;;;8.38;2.72;;;23.40;69.70;;;;;;6213900;23;20343;-76
2021/07/18 10:15:35;;;;;;;10.20;2.58;;;23.60;68.70;;;;;;6213723;23;20020;-77
2021/07/18 10:18:02;;;;;;;6.97;2.00;;;23.60;68.40;;;;;;6213149;23;20027;-77
2021/07/18 10:20:31;;;;;;;5.28;2.75;;;23.70;68.60;;;;;;6214682;23;20017;-76
2021/07/18 10:22:58;;;;;;;5.57;2.90;;;23.80;68.70;;;;;;6189822;23;20016;-78
2021/07/18 10:25:26;;;;;;;8.05;2.88;;;23.90;68.90;;;;;;6189178;23;20017;-77
2021/07/18 10:27:54;;;;;;;6.65;3.35;;;23.90;69.20;;;;;;6216229;23;20024;-77
2021/07/18 10:30:24;;;;;;;11.00;3.78;;;24.00;67.90;;;;;;6215662;23;20024;-77
2021/07/18 10:32:52;;;;;;;6.10;3.17;;;24.10;67.60;;;;;;6215443;23;20067;-76
2021/07/18 10:35:25;;;;;;;6.03;2.92;;;24.10;67.30;;;;;;6215852;23;20023;-77
2021/07/18 10:37:53;;;;;;;6.47;2.75;;;24.20;67.00;;;;;;6188978;23;20027;-77
2021/07/18 10:40:23;;;;;;;6.88;3.15;;;24.30;67.20;;;;;;6189025;23;20036;-76
2021/07/18 10:42:52;;;;;;;8.85;3.17;;;24.30;67.20;;;;;;6215928;23;20395;-76
2021/07/18 10:45:24;;;;;;;7.97;3.22;;;24.40;67.40;;;;;;6190582;23;20016;-77
2021/07/18 10:47:58;;;;;;;6.38;2.92;;;24.40;66.50;;;;;;6217014;23;20091;-78
2021/07/18 10:50:58;;;;;;;9.35;3.45;;;24.50;66.20;;;;;;6190567;23;20023;-78
2021/07/18 10:53:31;;;;;;;5.68;2.70;;;24.50;65.40;;;;;;6199561;23;20017;-78
2021/07/18 10:55:59;;;;;;;7.65;3.50;;;24.60;65.70;;;;;;6190607;23;20017;-77
2021/07/18 10:58:38;;;;;;;7.35;2.70;;;24.70;65.70;;;;;;6190344;23;20021;-78
2021/07/18 11:01:11;;;;;;;5.80;3.20;;;24.70;65.60;;;;;;6216471;23;20090;-78
2021/07/18 11:03:43;;;;;;;7.55;3.20;;;24.80;65.40;;;;;;6190656;23;20066;-78
2021/07/18 11:06:31;;;;;;;7.03;3.22;;;24.80;66.00;;;;;;6190428;23;20400;-77
2021/07/18 11:09:14;;;;;;;6.68;3.05;;;24.90;66.90;;;;;;6216128;23;20020;-78
2021/07/18 11:11:47;;;;;;;7.07;3.00;;;24.90;65.30;;;;;;6216714;23;20027;-78
2021/07/18 11:14:31;;;;;;;7.60;3.20;;;25.00;65.30;;;;;;6216725;23;20244;-78
2021/07/18 11:17:00;;;;;;;10.07;3.50;;;25.10;65.60;;;;;;6190284;23;20055;-77
2021/07/18 11:19:39;;;;;;;5.95;3.10;;;25.10;66.00;;;;;;6189690;23;20552;-77
2021/07/18 11:22:16;;;;;;;6.63;3.22;;;25.20;65.20;;;;;;6190065;23;20475;-78
2021/07/18 11:24:58;;;;;;;10.18;3.45;;;25.20;65.10;;;;;;6189770;23;20013;-78
2021/07/18 11:27:31;;;;;;;7.65;3.05;;;25.30;64.90;;;;;;6189892;23;20021;-78
2021/07/18 11:30:04;;;;;;;6.55;3.13;;;25.30;65.30;;;;;;6189994;23;20464;-77
2021/07/18 11:32:33;;;;;;;5.35;2.83;;;25.30;65.50;;;;;;6189466;23;20021;-78
2021/07/18 11:35:00;;;;;;;5.95;3.28;;;25.40;65.40;;;;;;6189833;23;20013;-78
2021/07/18 11:37:31;;;;;;;6.32;3.10;;;25.40;65.70;;;;;;6189827;23;20031;-78
2021/07/18 11:40:15;;;;;;;7.88;3.35;;;25.40;64.70;;;;;;6216108;23;20468;-79
2021/07/18 11:42:48;;;;;;;9.35;3.85;;;25.50;64.30;;;;;;6216407;23;20017;-78
2021/07/18 11:45:15;;;;;;;7.13;3.20;;;25.50;64.10;;;;;;6190136;23;20017;-78
2021/07/18 11:47:42;;;;;;;5.70;3.10;;;25.60;64.50;;;;;;6189649;23;20020;-78
2021/07/18 11:50:15;;;;;;;7.13;3.60;;;25.60;64.60;;;;;;6215933;23;20096;-78
2021/07/18 11:52:42;;;;;;;7.95;3.67;;;25.70;65.00;;;;;;6189625;23;20012;-78
2021/07/18 11:55:11;;;;;;;7.72;3.67;;;25.80;65.20;;;;;;6216257;23;20039;-78
2021/07/18 11:57:42;;;;;;;7.60;3.22;;;25.90;65.10;;;;;;6216090;23;20087;-80
2021/07/18 12:00:09;;;;;;;7.53;3.30;;;25.90;64.30;;;;;;6216153;23;20017;-79
2021/07/18 12:02:39;;;;;;;5.10;3.15;;;25.90;64.80;;;;;;6187383;23;20023;-79
2021/07/18 12:05:08;;;;;;;6.43;3.35;;;26.00;65.30;;;;;;6215041;23;20088;-79
2021/07/18 12:07:35;;;;;;;6.35;3.70;;;26.10;66.10;;;;;;6215154;23;20016;-78
2021/07/18 12:10:05;;;;;;;7.35;3.50;;;26.20;66.20;;;;;;6215180;23;20016;-78
2021/07/18 12:12:32;;;;;;;7.28;3.92;;;26.30;66.70;;;;;;6213616;23;20052;-79
2021/07/18 12:15:00;;;;;;;5.65;3.10;;;26.30;67.10;;;;;;6214411;23;20348;-78
2021/07/18 12:17:27;;;;;;;7.00;3.58;;;26.40;67.60;;;;;;6188289;23;20092;-78
2021/07/18 12:19:54;;;;;;;8.25;3.50;;;26.40;68.20;;;;;;6188276;23;20020;-80
2021/07/18 12:22:22;;;;;;;10.02;3.28;;;26.50;67.70;;;;;;6214467;23;20023;-77
2021/07/18 12:24:53;;;;;;;7.57;3.08;;;26.60;67.00;;;;;;6214234;23;20017;-78
2021/07/18 12:27:29;;;;;;;5.78;3.10;;;26.60;66.90;;;;;;6214099;23;20051;-79
2021/07/18 12:30:05;;;;;;;7.55;3.08;;;26.60;67.80;;;;;;6214453;23;20487;-79
2021/07/18 12:32:33;;;;;;;7.10;3.20;;;26.70;65.30;;;;;;6188029;23;20104;-79
2021/07/18 12:35:02;;;;;;;6.50;3.38;;;26.80;66.80;;;;;;6210265;23;20031;-78
2021/07/18 12:37:31;;;;;;;7.32;3.17;;;26.90;67.30;;;;;;6187555;23;20020;-77
2021/07/18 12:40:01;;;;;;;7.20;3.08;;;26.90;67.30;;;;;;6188416;23;20368;-78
2021/07/18 12:42:28;;;;;;;9.77;3.30;;;27.10;67.30;;;;;;6187532;23;20510;-78
2021/07/18 12:44:58;;;;;;;12.70;3.47;;;27.10;67.20;;;;;;6187751;23;20017;-79
2021/07/18 12:47:39;;;;;;;9.25;3.47;;;27.10;67.40;;;;;;6214395;23;20013;-78
2021/07/18 12:50:11;;;;;;;7.88;3.45;;;27.20;68.00;;;;;;6187724;23;20020;-78